Terminal Aerodrome Forecast
Issued by NWS

Home | Current Version | Previous Version | Text Only | Print | Product List | Glossary On
Versions: 1 2 3 4 5 6 7 8 9 10 11 12 13 14 15 16 17 18 19 20 21 22 23 24 25
281
FTUS43 KILX 251025 AAC
TAFCMI
TAF AMD
KCMI 251025Z 2510/2606 30009KT P6SM FEW090
     FM251200 36004KT 5SM BR SCT012 BKN050
     FM251300 01005KT P6SM SCT015 BKN050
     FM251500 01005KT P6SM SCT040=

USA.gov is the U.S. government's official web portal to all federal, state and local government web resources and services.